LRBC - BACAU/GEORGE ENESCU

Compiled: 17:59:01 on 22/07/2018

Latest METAR/SPECI Reports

METAR LRBC 221730Z 34006KT CAVOK 21/19 Q1008 R16/CLRD//=

Previous reports

METAR LRBC 221700Z 02004KT 340V050 CAVOK 23/19 Q1008 R16/220295=
METAR COR LRBC 221630Z 32005KT 270V010 9999 FEW050CB 23/18 Q1008 R16/220295=
METAR LRBC 221630Z 32005KT 270V010 9999 FEW050 23/18 Q1008 R16/220295=
METAR LRBC 221600Z 04004KT 330V080 9999 FEW055CB 24/18 Q1008 R16/220295=

Latest TAF report

TAF LRBC 221700Z 2218/2303 VRB04KT CAVOK=

Valid WARNINGS

No valid warnings for LRBC